sensor_id;sensor_type;location;lat;lon;timestamp;P1;durP1;ratioP1;P2;durP2;ratioP2
59728;SDS011;45588;51.598;5.618;2023-04-01T00:01:00;8.07;;;1.80;;
59728;SDS011;45588;51.598;5.618;2023-04-01T00:03:25;4.80;;;1.50;;
59728;SDS011;45588;51.598;5.618;2023-04-01T00:05:54;7.35;;;2.33;;
59728;SDS011;45588;51.598;5.618;2023-04-01T00:08:20;9.60;;;3.35;;
59728;SDS011;45588;51.598;5.618;2023-04-01T00:10:45;8.77;;;3.70;;
59728;SDS011;45588;51.598;5.618;2023-04-01T00:13:11;6.05;;;1.60;;
59728;SDS011;45588;51.598;5.618;2023-04-01T00:15:36;8.73;;;2.33;;
59728;SDS011;45588;51.598;5.618;2023-04-01T00:18:01;6.00;;;1.30;;
59728;SDS011;45588;51.598;5.618;2023-04-01T00:20:27;11.27;;;1.67;;
59728;SDS011;45588;51.598;5.618;2023-04-01T00:22:52;8.07;;;3.03;;
59728;SDS011;45588;51.598;5.618;2023-04-01T00:25:17;5.43;;;2.20;;
59728;SDS011;45588;51.598;5.618;2023-04-01T00:27:43;6.88;;;2.50;;
59728;SDS011;45588;51.598;5.618;2023-04-01T00:30:08;7.35;;;1.70;;
59728;SDS011;45588;51.598;5.618;2023-04-01T00:32:34;6.80;;;2.53;;
59728;SDS011;45588;51.598;5.618;2023-04-01T00:35:00;4.07;;;2.38;;
59728;SDS011;45588;51.598;5.618;2023-04-01T00:37:26;8.40;;;2.25;;
59728;SDS011;45588;51.598;5.618;2023-04-01T00:39:51;11.68;;;4.40;;
59728;SDS011;45588;51.598;5.618;2023-04-01T00:42:17;7.65;;;4.13;;
59728;SDS011;45588;51.598;5.618;2023-04-01T00:44:44;4.15;;;1.80;;
59728;SDS011;45588;51.598;5.618;2023-04-01T00:47:09;12.20;;;4.93;;
59728;SDS011;45588;51.598;5.618;2023-04-01T00:49:42;3.50;;;2.15;;
59728;SDS011;45588;51.598;5.618;2023-04-01T00:52:09;11.30;;;4.97;;
59728;SDS011;45588;51.598;5.618;2023-04-01T00:54:35;9.13;;;4.80;;
59728;SDS011;45588;51.598;5.618;2023-04-01T00:57:20;10.00;;;2.88;;
59728;SDS011;45588;51.598;5.618;2023-04-01T00:59:47;4.88;;;2.40;;
59728;SDS011;45588;51.598;5.618;2023-04-01T01:02:14;9.32;;;3.05;;
59728;SDS011;45588;51.598;5.618;2023-04-01T01:04:40;8.80;;;5.43;;
59728;SDS011;45588;51.598;5.618;2023-04-01T01:24:43;8.95;;;7.93;;
59728;SDS011;45588;51.598;5.618;2023-04-01T01:27:17;6.03;;;3.75;;
59728;SDS011;45588;51.598;5.618;2023-04-01T01:37:42;11.98;;;9.05;;
59728;SDS011;45588;51.598;5.618;2023-04-01T01:40:09;6.68;;;4.45;;
59728;SDS011;45588;51.598;5.618;2023-04-01T01:42:37;6.53;;;4.07;;
59728;SDS011;45588;51.598;5.618;2023-04-01T01:45:02;11.07;;;8.93;;
59728;SDS011;45588;51.598;5.618;2023-04-01T01:47:28;10.57;;;4.32;;
59728;SDS011;45588;51.598;5.618;2023-04-01T01:49:54;5.93;;;4.20;;
59728;SDS011;45588;51.598;5.618;2023-04-01T01:52:21;9.23;;;4.47;;
59728;SDS011;45588;51.598;5.618;2023-04-01T01:54:47;10.52;;;9.63;;
59728;SDS011;45588;51.598;5.618;2023-04-01T01:57:12;7.93;;;5.07;;
59728;SDS011;45588;51.598;5.618;2023-04-01T01:59:38;9.52;;;5.22;;
59728;SDS011;45588;51.598;5.618;2023-04-01T02:02:04;12.05;;;6.00;;
59728;SDS011;45588;51.598;5.618;2023-04-01T02:04:42;10.10;;;5.78;;
59728;SDS011;45588;51.598;5.618;2023-04-01T02:07:09;13.43;;;12.07;;
59728;SDS011;45588;51.598;5.618;2023-04-01T02:09:36;11.98;;;6.40;;
59728;SDS011;45588;51.598;5.618;2023-04-01T02:12:02;18.15;;;16.23;;
59728;SDS011;45588;51.598;5.618;2023-04-01T02:14:47;14.88;;;8.05;;
59728;SDS011;45588;51.598;5.618;2023-04-01T02:17:17;14.65;;;8.63;;
59728;SDS011;45588;51.598;5.618;2023-04-01T02:19:53;17.98;;;9.13;;
59728;SDS011;45588;51.598;5.618;2023-04-01T02:22:29;19.55;;;17.55;;
59728;SDS011;45588;51.598;5.618;2023-04-01T02:25:01;14.70;;;8.80;;
59728;SDS011;45588;51.598;5.618;2023-04-01T02:27:27;16.20;;;14.63;;
59728;SDS011;45588;51.598;5.618;2023-04-01T02:29:53;11.85;;;6.63;;
59728;SDS011;45588;51.598;5.618;2023-04-01T02:32:18;15.27;;;13.68;;
59728;SDS011;45588;51.598;5.618;2023-04-01T02:34:44;15.23;;;13.60;;
59728;SDS011;45588;51.598;5.618;2023-04-01T02:37:10;10.35;;;6.53;;
59728;SDS011;45588;51.598;5.618;2023-04-01T02:39:36;10.70;;;5.45;;
59728;SDS011;45588;51.598;5.618;2023-04-01T02:42:01;11.90;;;7.18;;
59728;SDS011;45588;51.598;5.618;2023-04-01T02:44:26;13.57;;;7.10;;
59728;SDS011;45588;51.598;5.618;2023-04-01T02:46:51;18.55;;;15.32;;
59728;SDS011;45588;51.598;5.618;2023-04-01T02:49:17;20.20;;;17.10;;
59728;SDS011;45588;51.598;5.618;2023-04-01T02:51:43;13.18;;;8.25;;
59728;SDS011;45588;51.598;5.618;2023-04-01T02:54:08;22.37;;;18.10;;
59728;SDS011;45588;51.598;5.618;2023-04-01T02:56:33;15.40;;;7.75;;
59728;SDS011;45588;51.598;5.618;2023-04-01T02:58:58;22.57;;;18.73;;
59728;SDS011;45588;51.598;5.618;2023-04-01T03:01:23;14.80;;;8.40;;
59728;SDS011;45588;51.598;5.618;2023-04-01T03:03:48;23.48;;;19.00;;
59728;SDS011;45588;51.598;5.618;2023-04-01T03:06:14;16.85;;;9.15;;
59728;SDS011;45588;51.598;5.618;2023-04-01T03:08:40;19.23;;;9.75;;
59728;SDS011;45588;51.598;5.618;2023-04-01T03:11:05;21.25;;;9.40;;
59728;SDS011;45588;51.598;5.618;2023-04-01T03:13:31;20.13;;;9.43;;
59728;SDS011;45588;51.598;5.618;2023-04-01T03:15:56;25.92;;;20.08;;
59728;SDS011;45588;51.598;5.618;2023-04-01T03:18:21;18.20;;;9.63;;
59728;SDS011;45588;51.598;5.618;2023-04-01T03:20:47;29.13;;;22.40;;
59728;SDS011;45588;51.598;5.618;2023-04-01T03:23:12;28.80;;;22.05;;
59728;SDS011;45588;51.598;5.618;2023-04-01T03:25:37;30.58;;;24.00;;
59728;SDS011;45588;51.598;5.618;2023-04-01T03:28:03;24.98;;;11.98;;
59728;SDS011;45588;51.598;5.618;2023-04-01T03:30:28;24.48;;;11.32;;
59728;SDS011;45588;51.598;5.618;2023-04-01T03:32:56;33.28;;;14.50;;
59728;SDS011;45588;51.598;5.618;2023-04-01T03:35:21;22.02;;;10.90;;
59728;SDS011;45588;51.598;5.618;2023-04-01T03:37:46;31.35;;;23.88;;
59728;SDS011;45588;51.598;5.618;2023-04-01T03:40:11;30.67;;;23.83;;
59728;SDS011;45588;51.598;5.618;2023-04-01T03:42:37;32.20;;;23.80;;
59728;SDS011;45588;51.598;5.618;2023-04-01T03:45:02;21.20;;;10.60;;
59728;SDS011;45588;51.598;5.618;2023-04-01T03:47:28;18.58;;;9.93;;
59728;SDS011;45588;51.598;5.618;2023-04-01T03:49:56;29.83;;;21.85;;
59728;SDS011;45588;51.598;5.618;2023-04-01T03:52:22;19.13;;;9.90;;
59728;SDS011;45588;51.598;5.618;2023-04-01T03:54:47;29.90;;;21.38;;
59728;SDS011;45588;51.598;5.618;2023-04-01T03:57:12;25.05;;;21.05;;
59728;SDS011;45588;51.598;5.618;2023-04-01T03:59:37;18.43;;;8.80;;
59728;SDS011;45588;51.598;5.618;2023-04-01T04:02:02;16.73;;;8.27;;
59728;SDS011;45588;51.598;5.618;2023-04-01T04:04:28;23.33;;;17.67;;
59728;SDS011;45588;51.598;5.618;2023-04-01T04:06:53;21.58;;;17.55;;
59728;SDS011;45588;51.598;5.618;2023-04-01T04:09:18;20.83;;;14.93;;
59728;SDS011;45588;51.598;5.618;2023-04-01T04:11:43;14.50;;;8.23;;
59728;SDS011;45588;51.598;5.618;2023-04-01T04:14:09;14.27;;;7.70;;
59728;SDS011;45588;51.598;5.618;2023-04-01T04:16:35;16.52;;;7.72;;
59728;SDS011;45588;51.598;5.618;2023-04-01T04:19:01;21.00;;;16.52;;
59728;SDS011;45588;51.598;5.618;2023-04-01T04:21:26;10.13;;;5.53;;
59728;SDS011;45588;51.598;5.618;2023-04-01T04:23:52;13.20;;;7.43;;
59728;SDS011;45588;51.598;5.618;2023-04-01T04:26:17;16.43;;;14.30;;
59728;SDS011;45588;51.598;5.618;2023-04-01T04:28:42;13.93;;;6.72;;
59728;SDS011;45588;51.598;5.618;2023-04-01T04:31:07;9.23;;;5.18;;
59728;SDS011;45588;51.598;5.618;2023-04-01T04:33:33;8.77;;;4.93;;
59728;SDS011;45588;51.598;5.618;2023-04-01T04:35:59;12.95;;;11.15;;
59728;SDS011;45588;51.598;5.618;2023-04-01T04:38:25;9.95;;;5.28;;
59728;SDS011;45588;51.598;5.618;2023-04-01T04:40:50;13.13;;;11.73;;
59728;SDS011;45588;51.598;5.618;2023-04-01T04:43:16;7.78;;;4.88;;
59728;SDS011;45588;51.598;5.618;2023-04-01T04:45:41;8.63;;;5.03;;
59728;SDS011;45588;51.598;5.618;2023-04-01T04:48:07;13.57;;;10.95;;
59728;SDS011;45588;51.598;5.618;2023-04-01T04:50:33;8.05;;;5.20;;
59728;SDS011;45588;51.598;5.618;2023-04-01T04:52:58;7.97;;;4.78;;
59728;SDS011;45588;51.598;5.618;2023-04-01T04:55:23;10.67;;;5.80;;
59728;SDS011;45588;51.598;5.618;2023-04-01T04:57:48;13.75;;;11.77;;
59728;SDS011;45588;51.598;5.618;2023-04-01T05:00:13;10.57;;;5.53;;
59728;SDS011;45588;51.598;5.618;2023-04-01T05:02:39;13.52;;;12.20;;
59728;SDS011;45588;51.598;5.618;2023-04-01T05:05:05;9.25;;;5.20;;
59728;SDS011;45588;51.598;5.618;2023-04-01T05:07:30;8.95;;;4.25;;
59728;SDS011;45588;51.598;5.618;2023-04-01T05:09:55;7.15;;;4.50;;
59728;SDS011;45588;51.598;5.618;2023-04-01T05:12:20;7.80;;;4.47;;
59728;SDS011;45588;51.598;5.618;2023-04-01T05:14:45;9.45;;;4.97;;
59728;SDS011;45588;51.598;5.618;2023-04-01T05:17:11;13.05;;;11.73;;
59728;SDS011;45588;51.598;5.618;2023-04-01T05:19:37;10.55;;;6.50;;
59728;SDS011;45588;51.598;5.618;2023-04-01T05:22:02;13.43;;;12.02;;
59728;SDS011;45588;51.598;5.618;2023-04-01T05:24:27;14.07;;;12.65;;
59728;SDS011;45588;51.598;5.618;2023-04-01T05:26:52;11.10;;;5.57;;
59728;SDS011;45588;51.598;5.618;2023-04-01T05:29:18;8.02;;;4.97;;
59728;SDS011;45588;51.598;5.618;2023-04-01T05:31:43;15.05;;;13.07;;
59728;SDS011;45588;51.598;5.618;2023-04-01T05:34:08;12.07;;;6.80;;
59728;SDS011;45588;51.598;5.618;2023-04-01T05:36:33;15.93;;;13.15;;
59728;SDS011;45588;51.598;5.618;2023-04-01T05:38:59;13.25;;;5.47;;
59728;SDS011;45588;51.598;5.618;2023-04-01T05:41:24;9.45;;;5.28;;
59728;SDS011;45588;51.598;5.618;2023-04-01T05:43:50;11.35;;;5.75;;
59728;SDS011;45588;51.598;5.618;2023-04-01T05:46:15;12.00;;;6.20;;
59728;SDS011;45588;51.598;5.618;2023-04-01T05:48:40;11.27;;;5.43;;
59728;SDS011;45588;51.598;5.618;2023-04-01T05:51:05;11.20;;;6.03;;
59728;SDS011;45588;51.598;5.618;2023-04-01T05:53:31;10.88;;;6.55;;
59728;SDS011;45588;51.598;5.618;2023-04-01T05:55:56;10.07;;;5.78;;
59728;SDS011;45588;51.598;5.618;2023-04-01T05:58:21;16.05;;;14.35;;
59728;SDS011;45588;51.598;5.618;2023-04-01T06:00:47;14.57;;;6.40;;
59728;SDS011;45588;51.598;5.618;2023-04-01T06:03:15;16.95;;;15.15;;
59728;SDS011;45588;51.598;5.618;2023-04-01T06:05:41;16.55;;;8.10;;
59728;SDS011;45588;51.598;5.618;2023-04-01T06:08:13;20.75;;;16.98;;
59728;SDS011;45588;51.598;5.618;2023-04-01T06:15:38;17.80;;;9.40;;
59728;SDS011;45588;51.598;5.618;2023-04-01T06:18:13;20.95;;;9.27;;
59728;SDS011;45588;51.598;5.618;2023-04-01T06:28:21;23.58;;;13.00;;
59728;SDS011;45588;51.598;5.618;2023-04-01T06:30:52;34.55;;;25.92;;
59728;SDS011;45588;51.598;5.618;2023-04-01T06:46:35;35.40;;;26.70;;
59728;SDS011;45588;51.598;5.618;2023-04-01T06:51:48;22.50;;;11.48;;
59728;SDS011;45588;51.598;5.618;2023-04-01T06:56:40;34.80;;;26.00;;
59728;SDS011;45588;51.598;5.618;2023-04-01T06:59:09;33.55;;;26.38;;
59728;SDS011;45588;51.598;5.618;2023-04-01T07:01:38;25.42;;;12.68;;
59728;SDS011;45588;51.598;5.618;2023-04-01T07:04:06;24.50;;;12.48;;
59728;SDS011;45588;51.598;5.618;2023-04-01T07:09:00;35.45;;;26.15;;
59728;SDS011;45588;51.598;5.618;2023-04-01T07:11:29;30.05;;;12.48;;
59728;SDS011;45588;51.598;5.618;2023-04-01T07:13:59;28.30;;;12.32;;
59728;SDS011;45588;51.598;5.618;2023-04-01T07:16:38;39.78;;;28.42;;
59728;SDS011;45588;51.598;5.618;2023-04-01T07:21:34;31.15;;;12.63;;
59728;SDS011;45588;51.598;5.618;2023-04-01T07:24:03;31.13;;;13.15;;
59728;SDS011;45588;51.598;5.618;2023-04-01T07:26:29;39.80;;;26.95;;
59728;SDS011;45588;51.598;5.618;2023-04-01T07:28:54;27.85;;;12.23;;
59728;SDS011;45588;51.598;5.618;2023-04-01T07:31:25;28.83;;;13.13;;
59728;SDS011;45588;51.598;5.618;2023-04-01T07:39:14;22.47;;;10.13;;
59728;SDS011;45588;51.598;5.618;2023-04-01T07:46:42;21.97;;;9.77;;
59728;SDS011;45588;51.598;5.618;2023-04-01T07:57:09;27.92;;;11.30;;
59728;SDS011;45588;51.598;5.618;2023-04-01T08:02:48;26.98;;;11.75;;
59728;SDS011;45588;51.598;5.618;2023-04-01T08:04:56;27.30;;;18.38;;
59728;SDS011;45588;51.598;5.618;2023-04-01T08:07:30;20.27;;;8.65;;
59728;SDS011;45588;51.598;5.618;2023-04-01T08:13:12;24.48;;;9.52;;
59728;SDS011;45588;51.598;5.618;2023-04-01T08:18:04;20.05;;;9.07;;
59728;SDS011;45588;51.598;5.618;2023-04-01T08:20:36;24.83;;;18.25;;
59728;SDS011;45588;51.598;5.618;2023-04-01T08:25:28;24.05;;;10.13;;
59728;SDS011;45588;51.598;5.618;2023-04-01T08:28:00;31.88;;;23.58;;
59728;SDS011;45588;51.598;5.618;2023-04-01T08:32:59;24.02;;;12.27;;
59728;SDS011;45588;51.598;5.618;2023-04-01T08:35:38;30.80;;;15.48;;
59728;SDS011;45588;51.598;5.618;2023-04-01T08:38:19;32.60;;;13.68;;
59728;SDS011;45588;51.598;5.618;2023-04-01T08:45:48;36.70;;;27.02;;
59728;SDS011;45588;51.598;5.618;2023-04-01T08:48:42;30.58;;;13.07;;
59728;SDS011;45588;51.598;5.618;2023-04-01T08:56:15;36.42;;;19.65;;
59728;SDS011;45588;51.598;5.618;2023-04-01T09:06:57;39.92;;;29.45;;
59728;SDS011;45588;51.598;5.618;2023-04-01T09:17:06;31.52;;;14.70;;
59728;SDS011;45588;51.598;5.618;2023-04-01T09:22:21;28.85;;;14.30;;
59728;SDS011;45588;51.598;5.618;2023-04-01T09:24:56;30.40;;;12.68;;
59728;SDS011;45588;51.598;5.618;2023-04-01T09:40:17;32.63;;;14.93;;
59728;SDS011;45588;51.598;5.618;2023-04-01T09:42:44;22.67;;;12.13;;
59728;SDS011;45588;51.598;5.618;2023-04-01T09:48:12;29.70;;;11.98;;
59728;SDS011;45588;51.598;5.618;2023-04-01T10:05:43;25.30;;;13.52;;
59728;SDS011;45588;51.598;5.618;2023-04-01T10:11:04;26.05;;;20.95;;
59728;SDS011;45588;51.598;5.618;2023-04-01T10:16:10;25.50;;;19.73;;
59728;SDS011;45588;51.598;5.618;2023-04-01T10:26:28;25.77;;;18.65;;
59728;SDS011;45588;51.598;5.618;2023-04-01T10:29:00;20.77;;;18.58;;
59728;SDS011;45588;51.598;5.618;2023-04-01T10:36:54;16.67;;;15.07;;
59728;SDS011;45588;51.598;5.618;2023-04-01T10:42:11;16.67;;;14.38;;
59728;SDS011;45588;51.598;5.618;2023-04-01T10:55:30;11.90;;;10.80;;
59728;SDS011;45588;51.598;5.618;2023-04-01T11:16:03;17.67;;;11.77;;
59728;SDS011;45588;51.598;5.618;2023-04-01T11:18:44;17.60;;;13.20;;
59728;SDS011;45588;51.598;5.618;2023-04-01T11:29:03;23.23;;;20.92;;
59728;SDS011;45588;51.598;5.618;2023-04-01T11:31:50;23.33;;;21.13;;
59728;SDS011;45588;51.598;5.618;2023-04-01T11:37:27;25.92;;;23.38;;
59728;SDS011;45588;51.598;5.618;2023-04-01T11:45:07;22.52;;;13.48;;
59728;SDS011;45588;51.598;5.618;2023-04-01T11:47:47;23.27;;;14.82;;
59728;SDS011;45588;51.598;5.618;2023-04-01T11:53:18;30.65;;;27.58;;
59728;SDS011;45588;51.598;5.618;2023-04-01T12:14:11;22.10;;;19.88;;
59728;SDS011;45588;51.598;5.618;2023-04-01T12:21:47;21.33;;;19.13;;
59728;SDS011;45588;51.598;5.618;2023-04-01T12:29:52;14.98;;;8.63;;
59728;SDS011;45588;51.598;5.618;2023-04-01T12:31:59;18.45;;;16.10;;
59728;SDS011;45588;51.598;5.618;2023-04-01T12:34:33;12.75;;;9.57;;
59728;SDS011;45588;51.598;5.618;2023-04-01T12:37:17;16.83;;;15.13;;
59728;SDS011;45588;51.598;5.618;2023-04-01T12:49:45;15.57;;;10.82;;
59728;SDS011;45588;51.598;5.618;2023-04-01T12:52:15;15.20;;;12.88;;
59728;SDS011;45588;51.598;5.618;2023-04-01T12:54:50;11.70;;;10.38;;
59728;SDS011;45588;51.598;5.618;2023-04-01T13:15:28;13.75;;;12.15;;
59728;SDS011;45588;51.598;5.618;2023-04-01T13:23:32;12.50;;;6.38;;
59728;SDS011;45588;51.598;5.618;2023-04-01T13:28:45;10.10;;;7.45;;
59728;SDS011;45588;51.598;5.618;2023-04-01T13:34:06;15.65;;;13.95;;
59728;SDS011;45588;51.598;5.618;2023-04-01T13:36:43;15.50;;;13.88;;
59728;SDS011;45588;51.598;5.618;2023-04-01T13:39:20;10.73;;;6.38;;
59728;SDS011;45588;51.598;5.618;2023-04-01T13:44:17;8.93;;;8.05;;
59728;SDS011;45588;51.598;5.618;2023-04-01T14:19:45;14.68;;;12.35;;
59728;SDS011;45588;51.598;5.618;2023-04-01T14:24:57;10.80;;;6.68;;
59728;SDS011;45588;51.598;5.618;2023-04-01T14:30:01;13.73;;;12.35;;
59728;SDS011;45588;51.598;5.618;2023-04-01T14:50:12;14.65;;;13.15;;
59728;SDS011;45588;51.598;5.618;2023-04-01T14:52:39;12.70;;;11.38;;
59728;SDS011;45588;51.598;5.618;2023-04-01T14:55:25;14.30;;;10.48;;
59728;SDS011;45588;51.598;5.618;2023-04-01T14:58:07;13.48;;;7.22;;
59728;SDS011;45588;51.598;5.618;2023-04-01T15:00:47;11.48;;;6.93;;
59728;SDS011;45588;51.598;5.618;2023-04-01T15:05:45;11.63;;;7.00;;
59728;SDS011;45588;51.598;5.618;2023-04-01T15:08:24;13.77;;;12.23;;
59728;SDS011;45588;51.598;5.618;2023-04-01T15:16:11;13.32;;;6.80;;
59728;SDS011;45588;51.598;5.618;2023-04-01T15:18:49;15.13;;;7.38;;
59728;SDS011;45588;51.598;5.618;2023-04-01T15:21:19;11.65;;;7.65;;
59728;SDS011;45588;51.598;5.618;2023-04-01T15:23:57;14.20;;;12.70;;
59728;SDS011;45588;51.598;5.618;2023-04-01T15:29:18;20.60;;;14.10;;
59728;SDS011;45588;51.598;5.618;2023-04-01T15:32:15;15.65;;;13.98;;
59728;SDS011;45588;51.598;5.618;2023-04-01T15:34:44;19.40;;;15.52;;
59728;SDS011;45588;51.598;5.618;2023-04-01T15:39:54;14.18;;;10.75;;
59728;SDS011;45588;51.598;5.618;2023-04-01T15:52:16;13.32;;;7.65;;
59728;SDS011;45588;51.598;5.618;2023-04-01T15:57:17;13.45;;;7.90;;
59728;SDS011;45588;51.598;5.618;2023-04-01T15:59:53;18.23;;;15.18;;
59728;SDS011;45588;51.598;5.618;2023-04-01T16:04:54;13.32;;;7.57;;
59728;SDS011;45588;51.598;5.618;2023-04-01T16:12:40;19.15;;;15.50;;
59728;SDS011;45588;51.598;5.618;2023-04-01T16:15:11;14.40;;;7.22;;
59728;SDS011;45588;51.598;5.618;2023-04-01T16:17:55;16.33;;;14.00;;
59728;SDS011;45588;51.598;5.618;2023-04-01T16:20:43;19.17;;;15.77;;
59728;SDS011;45588;51.598;5.618;2023-04-01T16:25:43;16.60;;;12.07;;
59728;SDS011;45588;51.598;5.618;2023-04-01T16:31:04;17.92;;;15.60;;
59728;SDS011;45588;51.598;5.618;2023-04-01T16:33:34;20.58;;;15.43;;
59728;SDS011;45588;51.598;5.618;2023-04-01T16:38:58;13.95;;;8.27;;
59728;SDS011;45588;51.598;5.618;2023-04-01T16:41:23;17.80;;;8.75;;
59728;SDS011;45588;51.598;5.618;2023-04-01T16:43:50;18.40;;;16.35;;
59728;SDS011;45588;51.598;5.618;2023-04-01T16:49:03;17.42;;;8.85;;
59728;SDS011;45588;51.598;5.618;2023-04-01T17:02:01;17.42;;;15.48;;
59728;SDS011;45588;51.598;5.618;2023-04-01T17:04:31;16.85;;;8.68;;
59728;SDS011;45588;51.598;5.618;2023-04-01T17:12:17;14.98;;;8.98;;
59728;SDS011;45588;51.598;5.618;2023-04-01T17:14:52;17.23;;;7.32;;
59728;SDS011;45588;51.598;5.618;2023-04-01T17:31:02;12.57;;;11.27;;
59728;SDS011;45588;51.598;5.618;2023-04-01T17:36:21;10.60;;;8.85;;
59728;SDS011;45588;51.598;5.618;2023-04-01T17:47:03;12.00;;;7.25;;
59728;SDS011;45588;51.598;5.618;2023-04-01T17:49:39;13.57;;;12.27;;
59728;SDS011;45588;51.598;5.618;2023-04-01T17:54:36;13.23;;;11.93;;
59728;SDS011;45588;51.598;5.618;2023-04-01T18:04:35;14.18;;;9.10;;
59728;SDS011;45588;51.598;5.618;2023-04-01T18:13:02;13.30;;;8.80;;
59728;SDS011;45588;51.598;5.618;2023-04-01T18:28:11;13.90;;;10.55;;
59728;SDS011;45588;51.598;5.618;2023-04-01T18:30:38;16.63;;;15.02;;
59728;SDS011;45588;51.598;5.618;2023-04-01T18:33:06;15.25;;;13.77;;
59728;SDS011;45588;51.598;5.618;2023-04-01T18:35:45;13.02;;;10.48;;
59728;SDS011;45588;51.598;5.618;2023-04-01T18:38:13;13.15;;;11.77;;
59728;SDS011;45588;51.598;5.618;2023-04-01T18:40:43;11.82;;;9.05;;
59728;SDS011;45588;51.598;5.618;2023-04-01T18:51:14;13.73;;;10.88;;
59728;SDS011;45588;51.598;5.618;2023-04-01T19:04:43;16.92;;;12.27;;
59728;SDS011;45588;51.598;5.618;2023-04-01T19:07:28;18.40;;;16.50;;
59728;SDS011;45588;51.598;5.618;2023-04-01T19:10:06;19.25;;;16.08;;
59728;SDS011;45588;51.598;5.618;2023-04-01T19:15:21;19.33;;;15.93;;
59728;SDS011;45588;51.598;5.618;2023-04-01T19:25:49;19.75;;;14.80;;
59728;SDS011;45588;51.598;5.618;2023-04-01T19:31:04;19.40;;;13.15;;
59728;SDS011;45588;51.598;5.618;2023-04-01T19:48:58;19.48;;;15.52;;
59728;SDS011;45588;51.598;5.618;2023-04-01T19:56:27;21.48;;;19.45;;
59728;SDS011;45588;51.598;5.618;2023-04-01T19:59:07;19.48;;;15.35;;
59728;SDS011;45588;51.598;5.618;2023-04-01T20:01:35;19.33;;;15.63;;
59728;SDS011;45588;51.598;5.618;2023-04-01T20:04:03;32.53;;;29.52;;
59728;SDS011;45588;51.598;5.618;2023-04-01T20:09:27;23.10;;;17.30;;
59728;SDS011;45588;51.598;5.618;2023-04-01T20:12:09;35.20;;;23.63;;
59728;SDS011;45588;51.598;5.618;2023-04-01T20:14:45;26.25;;;23.08;;
59728;SDS011;45588;51.598;5.618;2023-04-01T20:17:20;26.40;;;21.98;;
59728;SDS011;45588;51.598;5.618;2023-04-01T20:24:59;27.10;;;20.63;;
59728;SDS011;45588;51.598;5.618;2023-04-01T20:27:26;26.10;;;16.98;;
59728;SDS011;45588;51.598;5.618;2023-04-01T20:40:46;20.92;;;17.05;;
59728;SDS011;45588;51.598;5.618;2023-04-01T20:43:17;18.95;;;14.73;;
59728;SDS011;45588;51.598;5.618;2023-04-01T20:45:51;20.17;;;17.52;;
59728;SDS011;45588;51.598;5.618;2023-04-01T20:48:24;18.45;;;14.10;;
59728;SDS011;45588;51.598;5.618;2023-04-01T20:53:39;17.45;;;14.43;;
59728;SDS011;45588;51.598;5.618;2023-04-01T21:03:38;19.17;;;16.30;;
59728;SDS011;45588;51.598;5.618;2023-04-01T21:06:17;24.27;;;19.23;;
59728;SDS011;45588;51.598;5.618;2023-04-01T21:08:49;24.73;;;16.52;;
59728;SDS011;45588;51.598;5.618;2023-04-01T21:12:06;23.33;;;18.92;;
59728;SDS011;45588;51.598;5.618;2023-04-01T21:16:41;23.67;;;20.53;;
59728;SDS011;45588;51.598;5.618;2023-04-01T21:24:36;24.00;;;18.55;;
59728;SDS011;45588;51.598;5.618;2023-04-01T21:34:49;28.08;;;22.63;;
59728;SDS011;45588;51.598;5.618;2023-04-01T21:42:19;26.77;;;21.45;;
59728;SDS011;45588;51.598;5.618;2023-04-01T21:50:16;24.52;;;20.75;;
59728;SDS011;45588;51.598;5.618;2023-04-01T21:57:57;25.65;;;22.90;;
59728;SDS011;45588;51.598;5.618;2023-04-01T22:00:36;27.58;;;23.40;;
59728;SDS011;45588;51.598;5.618;2023-04-01T22:03:07;24.35;;;17.13;;
59728;SDS011;45588;51.598;5.618;2023-04-01T22:16:11;38.33;;;26.55;;
59728;SDS011;45588;51.598;5.618;2023-04-01T22:18:47;37.08;;;26.75;;
59728;SDS011;45588;51.598;5.618;2023-04-01T22:21:19;36.63;;;32.00;;
59728;SDS011;45588;51.598;5.618;2023-04-01T22:24:03;37.40;;;29.70;;
59728;SDS011;45588;51.598;5.618;2023-04-01T22:26:43;36.17;;;25.50;;
59728;SDS011;45588;51.598;5.618;2023-04-01T22:29:15;38.13;;;29.60;;
59728;SDS011;45588;51.598;5.618;2023-04-01T22:34:14;38.78;;;34.88;;
59728;SDS011;45588;51.598;5.618;2023-04-01T22:44:33;36.08;;;27.67;;
59728;SDS011;45588;51.598;5.618;2023-04-01T22:47:04;25.85;;;22.58;;
59728;SDS011;45588;51.598;5.618;2023-04-01T22:49:35;26.13;;;22.15;;
59728;SDS011;45588;51.598;5.618;2023-04-01T22:52:08;34.05;;;24.65;;
59728;SDS011;45588;51.598;5.618;2023-04-01T22:54:39;31.80;;;26.92;;
59728;SDS011;45588;51.598;5.618;2023-04-01T22:57:17;33.50;;;29.90;;
59728;SDS011;45588;51.598;5.618;2023-04-01T23:02:32;35.65;;;29.27;;
59728;SDS011;45588;51.598;5.618;2023-04-01T23:05:00;34.25;;;29.83;;
59728;SDS011;45588;51.598;5.618;2023-04-01T23:09:51;35.27;;;29.60;;
59728;SDS011;45588;51.598;5.618;2023-04-01T23:12:18;35.55;;;27.10;;
59728;SDS011;45588;51.598;5.618;2023-04-01T23:14:48;30.35;;;26.40;;
59728;SDS011;45588;51.598;5.618;2023-04-01T23:17:30;32.10;;;23.52;;
59728;SDS011;45588;51.598;5.618;2023-04-01T23:27:19;27.02;;;18.85;;
59728;SDS011;45588;51.598;5.618;2023-04-01T23:29:46;31.13;;;26.02;;
59728;SDS011;45588;51.598;5.618;2023-04-01T23:32:15;30.60;;;22.77;;
59728;SDS011;45588;51.598;5.618;2023-04-01T23:34:45;30.08;;;23.27;;
59728;SDS011;45588;51.598;5.618;2023-04-01T23:37:11;26.50;;;22.80;;
59728;SDS011;45588;51.598;5.618;2023-04-01T23:39:44;26.08;;;21.50;;
59728;SDS011;45588;51.598;5.618;2023-04-01T23:42:15;24.67;;;22.02;;
59728;SDS011;45588;51.598;5.618;2023-04-01T23:44:42;23.70;;;21.02;;
59728;SDS011;45588;51.598;5.618;2023-04-01T23:47:10;25.73;;;22.15;;
59728;SDS011;45588;51.598;5.618;2023-04-01T23:49:38;24.08;;;21.42;;
59728;SDS011;45588;51.598;5.618;2023-04-01T23:52:17;26.65;;;24.25;;
59728;SDS011;45588;51.598;5.618;2023-04-01T23:54:54;25.40;;;19.75;;
59728;SDS011;45588;51.598;5.618;2023-04-01T23:57:23;23.00;;;18.65;;
